Time;durP1;ratioP1;P1;durP2;ratioP2;P2;SDS_P1;SDS_P2;PMS_P1;PMS_P2;Temp;Humidity;BMP_temperature;BMP_pressure;BME280_temperature;BME280_humidity;BME280_pressure;Samples;Min_cycle;Max_cycle;Signal;HPM_P1;HPM_P2
2022/01/15 00:00:42;;;;;;;;;83.25;65.00;8.40;57.90;;;;;;5077501;28;8761;-69
2022/01/15 00:03:10;;;;;;;;;83.00;64.00;8.10;59.10;;;;;;5077502;28;8784;-70
2022/01/15 00:05:36;;;;;;;;;83.75;66.00;7.30;61.80;;;;;;5077721;28;8853;-68
2022/01/15 00:08:03;;;;;;;;;82.25;65.00;7.10;63.90;;;;;;5077335;28;8765;-69
2022/01/15 00:10:30;;;;;;;;;79.25;64.75;7.30;63.50;;;;;;5077662;28;8883;-67
2022/01/15 00:13:01;;;;;;;;;78.25;65.00;7.50;62.60;;;;;;5077103;28;8968;-68
2022/01/15 00:15:31;;;;;;;;;78.00;61.25;7.70;61.70;;;;;;5077242;28;8806;-69
2022/01/15 00:18:00;;;;;;;;;84.00;67.50;7.90;60.30;;;;;;5077197;28;8811;-68
2022/01/15 00:20:27;;;;;;;;;70.00;57.25;7.80;60.50;;;;;;5077492;28;8780;-69
2022/01/15 00:22:55;;;;;;;;;62.00;51.25;7.40;60.70;;;;;;5077100;28;8792;-69
2022/01/15 00:25:22;;;;;;;;;54.25;45.50;7.00;62.30;;;;;;5077095;28;8791;-69
2022/01/15 00:27:48;;;;;;;;;52.50;44.75;6.80;63.10;;;;;;5077257;28;8795;-70
2022/01/15 00:30:15;;;;;;;;;45.75;41.50;6.90;62.60;;;;;;5077236;28;8899;-69
2022/01/15 00:32:41;;;;;;;;;54.25;44.25;7.00;62.10;;;;;;5075836;28;8797;-68
2022/01/15 00:35:09;;;;;;;;;53.75;42.00;7.10;62.00;;;;;;5077041;28;8776;-69
2022/01/15 00:37:34;;;;;;;;;41.00;40.00;7.40;61.60;;;;;;5077105;28;9552;-69
2022/01/15 00:40:04;;;;;;;;;54.50;44.75;7.60;60.50;;;;;;5077108;28;8866;-70
2022/01/15 00:42:31;;;;;;;;;45.50;40.00;7.50;60.30;;;;;;5077057;28;8824;-69
2022/01/15 00:48:19;;;;;;;;;53.50;45.00;7.10;61.50;;;;;;5076759;28;8745;-68
2022/01/15 00:50:44;;;;;;;;;55.50;44.50;7.00;61.80;;;;;;5076628;28;8779;-67
2022/01/15 00:53:11;;;;;;;;;61.00;46.75;7.10;62.30;;;;;;5076535;28;8792;-69
2022/01/15 00:55:37;;;;;;;;;44.75;39.25;7.00;62.40;;;;;;5076309;28;8744;-69
2022/01/15 00:58:03;;;;;;;;;31.00;24.50;7.40;61.40;;;;;;5076584;28;8771;-69
2022/01/15 01:00:29;;;;;;;;;59.75;46.75;7.60;60.40;;;;;;5076519;28;8752;-69
2022/01/15 01:02:54;;;;;;;;;57.50;48.00;7.60;60.10;;;;;;5076377;28;8779;-70
2022/01/15 01:05:21;;;;;;;;;55.50;44.25;7.70;59.80;;;;;;5076658;28;8768;-69
2022/01/15 01:07:47;;;;;;;;;55.50;45.00;7.70;59.50;;;;;;5076290;28;8753;-69
2022/01/15 01:23:35;;;;;;;;;40.75;38.75;7.60;59.40;;;;;;5076322;28;8773;-70
2022/01/15 01:26:10;;;;;;;;;41.50;37.75;7.60;59.00;;;;;;5075904;28;8807;-69
2022/01/15 01:28:41;;;;;;;;;46.00;40.00;7.60;58.80;;;;;;5075971;28;8776;-70
2022/01/15 01:33:38;;;;;;;;;45.00;40.00;7.50;59.50;;;;;;5075975;28;8796;-71
2022/01/15 01:41:36;;;;;;;;;53.50;44.00;7.60;58.80;;;;;;5073489;28;8806;-70
2022/01/15 01:44:03;;;;;;;;;47.00;40.00;8.00;57.70;;;;;;5073569;28;8771;-70
2022/01/15 01:46:44;;;;;;;;;47.25;41.25;8.00;57.30;;;;;;5073508;28;8751;-70
2022/01/15 01:49:13;;;;;;;;;45.25;39.75;7.70;58.00;;;;;;5073468;28;8767;-70
2022/01/15 01:51:40;;;;;;;;;42.25;40.25;7.80;58.30;;;;;;5073337;28;8752;-70
2022/01/15 01:54:08;;;;;;;;;43.25;40.00;7.80;58.20;;;;;;5073379;28;8755;-70
2022/01/15 01:56:35;;;;;;;;;42.50;41.00;7.90;58.10;;;;;;5073297;28;8797;-69
2022/01/15 01:59:02;;;;;;;;;42.75;40.00;7.90;57.90;;;;;;5073233;28;8764;-70
2022/01/15 02:01:29;;;;;;;;;46.50;40.50;7.90;57.80;;;;;;5073052;28;9436;-70
2022/01/15 02:03:54;;;;;;;;;46.00;40.75;7.90;58.00;;;;;;5073139;28;8791;-69
2022/01/15 02:06:20;;;;;;;;;49.25;43.75;8.00;57.60;;;;;;5072749;28;8844;-70
2022/01/15 02:08:48;;;;;;;;;43.00;39.50;8.00;57.50;;;;;;5072880;28;8772;-68
2022/01/15 02:11:14;;;;;;;;;47.00;40.50;7.90;57.80;;;;;;5072381;28;8807;-70
2022/01/15 02:13:43;;;;;;;;;46.00;42.50;8.30;56.80;;;;;;5072960;28;9445;-69
2022/01/15 02:16:10;;;;;;;;;47.00;39.75;8.30;56.50;;;;;;5072975;28;8767;-69
2022/01/15 02:18:36;;;;;;;;;44.25;39.50;8.00;57.10;;;;;;5074499;28;8808;-70
2022/01/15 02:23:34;;;;;;;;;45.00;40.75;7.60;58.80;;;;;;5075144;28;8764;-68
2022/01/15 02:26:06;;;;;;;;;37.00;34.00;7.70;58.70;;;;;;5074906;28;8845;-70
2022/01/15 02:28:37;;;;;;;;;31.75;29.50;8.10;57.40;;;;;;5074922;28;8791;-70
2022/01/15 02:31:05;;;;;;;;;46.00;39.75;7.70;58.00;;;;;;5075057;28;8798;-71
2022/01/15 02:33:31;;;;;;;;;52.25;43.75;7.40;59.70;;;;;;5074676;28;8801;-70
2022/01/15 02:35:58;;;;;;;;;44.50;39.75;7.70;59.00;;;;;;5074707;28;8857;-70
2022/01/15 02:38:24;;;;;;;;;50.00;41.50;8.00;57.90;;;;;;5074670;28;8792;-69
2022/01/15 02:40:50;;;;;;;;;54.50;43.75;7.80;58.70;;;;;;5074869;28;8764;-69
2022/01/15 02:43:21;;;;;;;;;52.50;44.25;7.60;59.10;;;;;;5074655;28;9758;-69
2022/01/15 02:45:55;;;;;;;;;55.25;45.75;7.40;60.20;;;;;;5074655;28;8798;-69
2022/01/15 02:48:25;;;;;;;;;51.25;40.75;7.00;61.10;;;;;;5074619;28;8763;-70
2022/01/15 02:50:51;;;;;;;;;61.00;49.25;6.80;61.90;;;;;;5074706;28;8768;-70
2022/01/15 02:53:18;;;;;;;;;58.25;49.00;6.80;61.90;;;;;;5074408;28;8816;-68
2022/01/15 02:55:47;;;;;;;;;49.00;43.50;6.70;62.60;;;;;;5074730;28;8796;-70
2022/01/15 02:58:13;;;;;;;;;54.50;45.50;6.80;62.00;;;;;;5074653;28;8799;-70
2022/01/15 03:00:40;;;;;;;;;54.75;46.25;6.90;62.80;;;;;;5074384;28;8791;-69
2022/01/15 03:03:06;;;;;;;;;57.25;48.00;6.80;62.00;;;;;;5074410;28;8765;-70
2022/01/15 03:05:32;;;;;;;;;57.50;48.00;7.10;61.10;;;;;;5074596;28;8803;-68
2022/01/15 03:07:57;;;;;;;;;53.50;45.75;7.20;60.40;;;;;;5074327;28;9434;-70
2022/01/15 03:10:23;;;;;;;;;53.25;46.00;6.90;60.60;;;;;;5074358;28;8829;-70
2022/01/15 03:12:49;;;;;;;;;53.50;45.00;6.60;61.80;;;;;;5074060;28;8859;-68
2022/01/15 03:15:19;;;;;;;;;55.00;47.00;6.60;62.30;;;;;;5074257;28;8769;-69
2022/01/15 03:17:46;;;;;;;;;57.25;48.00;6.10;63.90;;;;;;5074503;28;8782;-68
2022/01/15 03:20:14;;;;;;;;;55.75;45.50;5.80;65.50;;;;;;5078664;28;8870;-71
2022/01/15 03:22:41;;;;;;;;;55.25;46.00;5.60;67.00;;;;;;5078555;28;8848;-70
2022/01/15 03:25:08;;;;;;;;;52.75;45.00;5.50;67.80;;;;;;5078229;28;8776;-68
2022/01/15 03:27:34;;;;;;;;;59.25;48.25;5.40;68.40;;;;;;5078287;28;9446;-67
2022/01/15 03:30:00;;;;;;;;;44.25;39.25;5.40;68.60;;;;;;5078198;28;8745;-70
2022/01/15 03:32:26;;;;;;;;;57.50;47.25;5.30;68.90;;;;;;5078002;28;8908;-68
2022/01/15 03:34:52;;;;;;;;;55.00;45.50;5.30;69.20;;;;;;5078126;28;8895;-68
2022/01/15 03:37:18;;;;;;;;;57.00;48.75;5.30;68.90;;;;;;5078338;28;8768;-70
2022/01/15 03:39:45;;;;;;;;;60.50;48.25;5.10;70.50;;;;;;5077974;28;8804;-70
2022/01/15 03:42:12;;;;;;;;;49.75;44.25;5.20;70.80;;;;;;5078299;28;8889;-69
2022/01/15 03:44:43;;;;;;;;;57.00;46.25;5.50;69.00;;;;;;5078155;28;8780;-70
2022/01/15 03:47:09;;;;;;;;;45.75;39.50;5.70;67.70;;;;;;5077850;28;8783;-69
2022/01/15 03:49:36;;;;;;;;;43.75;39.25;5.80;67.30;;;;;;5077832;28;8799;-69
2022/01/15 03:52:02;;;;;;;;;52.25;43.50;6.00;66.30;;;;;;5077660;28;8800;-70
2022/01/15 03:54:28;;;;;;;;;53.25;45.25;5.90;66.50;;;;;;5076747;28;8791;-69
2022/01/15 03:56:54;;;;;;;;;54.50;45.00;5.80;66.80;;;;;;5077686;28;8792;-69
2022/01/15 03:59:20;;;;;;;;;60.00;44.00;5.40;68.30;;;;;;5077866;28;8795;-70
2022/01/15 04:01:45;;;;;;;;;52.00;43.00;5.10;70.00;;;;;;5077807;28;9430;-70
2022/01/15 04:04:12;;;;;;;;;54.25;43.75;5.10;70.80;;;;;;5077498;28;9410;-68
2022/01/15 04:06:38;;;;;;;;;45.50;41.50;5.10;71.30;;;;;;5077746;28;8764;-70
2022/01/15 04:09:04;;;;;;;;;55.75;44.00;5.60;68.80;;;;;;5077479;28;9455;-71
2022/01/15 04:11:30;;;;;;;;;53.50;42.75;5.50;68.40;;;;;;5077058;28;9519;-68
2022/01/15 04:13:56;;;;;;;;;50.75;42.25;5.50;68.30;;;;;;5077357;28;8772;-70
2022/01/15 04:16:21;;;;;;;;;44.50;40.00;5.30;69.00;;;;;;5077292;28;8772;-71
2022/01/15 04:18:47;;;;;;;;;45.75;40.25;5.50;68.50;;;;;;5077233;28;8760;-70
2022/01/15 04:21:14;;;;;;;;;49.50;43.00;5.50;68.70;;;;;;5077258;28;8773;-71
2022/01/15 04:23:40;;;;;;;;;45.25;40.50;5.80;67.20;;;;;;5077152;28;8896;-71
2022/01/15 04:26:07;;;;;;;;;49.50;42.00;5.50;67.60;;;;;;5077682;28;8878;-71
2022/01/15 04:28:34;;;;;;;;;50.00;40.25;5.30;69.10;;;;;;5077398;28;9438;-69
2022/01/15 04:31:08;;;;;;;;;50.50;37.25;5.10;70.20;;;;;;5076287;28;8794;-70
2022/01/15 04:33:38;;;;;;;;;48.50;43.00;5.30;69.70;;;;;;5077021;28;8810;-69
2022/01/15 04:36:06;;;;;;;;;41.25;39.00;5.20;69.70;;;;;;5076922;28;9519;-70
2022/01/15 04:38:36;;;;;;;;;52.00;41.75;5.30;69.50;;;;;;5076951;28;8748;-70
2022/01/15 04:41:03;;;;;;;;;43.00;39.25;5.50;68.90;;;;;;5075791;28;8792;-71
2022/01/15 04:43:29;;;;;;;;;47.50;42.50;5.70;67.30;;;;;;5076906;28;8760;-71
2022/01/15 04:45:55;;;;;;;;;58.00;46.50;6.00;66.00;;;;;;5077066;28;8768;-72
2022/01/15 04:48:21;;;;;;;;;48.75;42.25;5.60;66.90;;;;;;5076982;28;8772;-70
2022/01/15 04:50:46;;;;;;;;;42.50;39.75;5.80;66.70;;;;;;5076724;28;8867;-71
2022/01/15 04:53:12;;;;;;;;;47.00;42.00;5.30;68.00;;;;;;5076829;28;8788;-70
2022/01/15 04:55:38;;;;;;;;;51.25;45.00;5.10;69.30;;;;;;5076896;28;8787;-70
2022/01/15 04:58:06;;;;;;;;;45.00;40.75;4.80;70.80;;;;;;5076560;28;8807;-71
2022/01/15 05:00:34;;;;;;;;;47.75;42.50;4.80;71.70;;;;;;5076755;28;8783;-70
2022/01/15 05:03:00;;;;;;;;;45.00;38.75;5.10;70.30;;;;;;5076720;28;9533;-70
2022/01/15 05:05:27;;;;;;;;;47.50;43.00;5.40;68.70;;;;;;5076432;28;8765;-69
2022/01/15 05:07:53;;;;;;;;;43.25;40.75;5.40;68.70;;;;;;5076634;28;8906;-71
2022/01/15 05:10:23;;;;;;;;;48.50;42.25;5.20;69.30;;;;;;5076605;28;8785;-70
2022/01/15 05:12:50;;;;;;;;;43.75;39.25;5.40;69.30;;;;;;5076039;28;8866;-70
2022/01/15 05:15:17;;;;;;;;;45.50;41.25;5.20;69.30;;;;;;5076177;28;8857;-68
2022/01/15 05:17:45;;;;;;;;;50.75;42.25;5.00;70.40;;;;;;5076216;28;8753;-70
2022/01/15 05:20:12;;;;;;;;;48.50;39.50;5.10;70.20;;;;;;5076139;28;8834;-69
2022/01/15 05:22:38;;;;;;;;;40.25;37.75;4.80;71.70;;;;;;5076037;28;8784;-68
2022/01/15 05:25:07;;;;;;;;;37.25;36.25;4.50;73.80;;;;;;5076009;28;8873;-68
2022/01/15 05:27:36;;;;;;;;;43.50;38.50;4.50;74.50;;;;;;5075994;28;8834;-72
2022/01/15 05:30:03;;;;;;;;;39.00;34.75;4.60;73.60;;;;;;5075955;28;8761;-70
2022/01/15 05:32:29;;;;;;;;;38.25;34.00;4.70;73.60;;;;;;5075769;28;8800;-69
2022/01/15 05:34:57;;;;;;;;;42.75;39.50;4.70;73.00;;;;;;5074738;28;8801;-69
2022/01/15 05:37:23;;;;;;;;;39.75;39.75;5.00;71.70;;;;;;5076020;28;8790;-70
2022/01/15 05:39:49;;;;;;;;;47.75;42.50;4.80;72.20;;;;;;5075874;28;8768;-69
2022/01/15 05:42:15;;;;;;;;;36.25;34.75;5.00;71.60;;;;;;5074867;28;9485;-70
2022/01/15 05:44:41;;;;;;;;;45.50;39.75;4.80;72.50;;;;;;5074515;28;8776;-70
2022/01/15 05:47:08;;;;;;;;;39.25;33.00;4.70;73.40;;;;;;5075752;28;8764;-70
2022/01/15 05:49:34;;;;;;;;;38.75;36.00;4.90;72.70;;;;;;5075751;28;8849;-69
2022/01/15 05:52:00;;;;;;;;;38.00;35.75;4.70;72.80;;;;;;5075665;28;8800;-70
2022/01/15 05:54:26;;;;;;;;;48.50;40.75;5.00;71.90;;;;;;5075441;28;8794;-69
2022/01/15 05:56:52;;;;;;;;;41.50;37.75;5.10;71.10;;;;;;5075409;28;8768;-69
2022/01/15 05:59:18;;;;;;;;;40.25;38.25;5.40;70.00;;;;;;5075581;28;8776;-69
2022/01/15 06:01:43;;;;;;;;;40.50;38.00;5.40;69.20;;;;;;5075260;28;9188;-70
2022/01/15 06:04:09;;;;;;;;;45.75;41.50;5.80;67.90;;;;;;5075543;28;8760;-69
2022/01/15 06:06:35;;;;;;;;;42.75;40.25;5.40;68.20;;;;;;5075444;28;8768;-71
2022/01/15 06:09:02;;;;;;;;;47.75;41.75;5.70;68.00;;;;;;5075444;28;8784;-71
2022/01/15 06:11:29;;;;;;;;;57.00;43.75;5.50;68.10;;;;;;5074960;28;8862;-71
2022/01/15 06:13:55;;;;;;;;;43.25;41.50;5.50;68.00;;;;;;5075295;28;8788;-70
2022/01/15 06:16:22;;;;;;;;;48.25;40.00;5.40;68.10;;;;;;5075322;28;8788;-70
2022/01/15 06:18:48;;;;;;;;;48.75;43.75;4.90;71.10;;;;;;5074977;28;8783;-70
2022/01/15 06:21:14;;;;;;;;;41.50;38.00;4.70;72.80;;;;;;5074879;28;8788;-71
2022/01/15 06:23:40;;;;;;;;;48.75;41.00;4.80;72.30;;;;;;5074851;28;8764;-70
2022/01/15 06:26:06;;;;;;;;;50.75;44.25;4.90;72.60;;;;;;5074944;28;8793;-70
2022/01/15 06:28:32;;;;;;;;;53.50;45.25;5.30;70.40;;;;;;5075014;28;8788;-71
2022/01/15 06:30:58;;;;;;;;;73.00;61.00;5.50;68.60;;;;;;5074751;28;8768;-70
2022/01/15 06:33:24;;;;;;;;;71.50;58.25;5.70;67.70;;;;;;5074877;28;8921;-70
2022/01/15 06:35:49;;;;;;;;;68.75;56.00;5.90;66.60;;;;;;5074664;28;8768;-69
2022/01/15 06:38:15;;;;;;;;;90.50;70.25;6.00;66.20;;;;;;5074649;28;8791;-70
2022/01/15 06:40:41;;;;;;;;;84.50;65.50;5.70;66.60;;;;;;5074541;28;8846;-68
2022/01/15 06:43:07;;;;;;;;;77.50;61.25;5.60;67.40;;;;;;5074582;28;8769;-68
2022/01/15 06:45:33;;;;;;;;;80.75;63.25;5.50;68.10;;;;;;5074572;28;8765;-70
2022/01/15 06:48:00;;;;;;;;;80.00;65.00;5.30;68.60;;;;;;5074824;28;8772;-70
2022/01/15 06:50:28;;;;;;;;;77.25;59.00;5.20;69.80;;;;;;5074547;28;8748;-69
2022/01/15 06:52:54;;;;;;;;;74.25;58.50;5.40;69.30;;;;;;5074075;28;8796;-69
2022/01/15 06:55:20;;;;;;;;;81.75;61.50;5.80;67.30;;;;;;5074499;28;8795;-70
2022/01/15 06:57:46;;;;;;;;;80.00;61.75;5.90;66.70;;;;;;5073379;28;8792;-69
2022/01/15 07:00:13;;;;;;;;;80.00;64.25;6.00;66.20;;;;;;5074372;28;8793;-68
2022/01/15 07:02:39;;;;;;;;;92.25;74.75;6.10;65.40;;;;;;5074274;28;8772;-69
2022/01/15 07:05:06;;;;;;;;;101.00;87.00;5.90;66.20;;;;;;5072654;28;8764;-69
2022/01/15 07:07:32;;;;;;;;;115.25;104.75;5.70;67.10;;;;;;5074159;28;8772;-74
2022/01/15 07:09:58;;;;;;;;;104.25;95.75;5.80;67.90;;;;;;5074262;28;8814;-68
2022/01/15 07:12:24;;;;;;;;;98.00;90.00;5.90;67.10;;;;;;5074084;28;8868;-68
2022/01/15 07:14:51;;;;;;;;;108.50;101.00;6.00;65.80;;;;;;5074393;28;8962;-67
2022/01/15 07:17:17;;;;;;;;;101.00;87.50;6.00;66.40;;;;;;5074167;28;8777;-66
2022/01/15 07:19:43;;;;;;;;;92.25;77.75;6.00;66.20;;;;;;5074333;28;8772;-66
2022/01/15 07:22:09;;;;;;;;;94.25;77.50;6.00;67.00;;;;;;5074141;28;8776;-67
2022/01/15 07:24:35;;;;;;;;;88.00;70.25;5.90;66.50;;;;;;5073882;28;8806;-67
2022/01/15 07:27:01;;;;;;;;;94.00;79.25;6.10;66.40;;;;;;5074356;28;8838;-67
2022/01/15 07:29:29;;;;;;;;;89.00;70.75;6.10;65.80;;;;;;5074342;28;8772;-67
2022/01/15 07:31:55;;;;;;;;;89.25;72.75;6.30;65.20;;;;;;5074273;28;9499;-67
2022/01/15 07:34:21;;;;;;;;;89.50;69.50;6.20;65.30;;;;;;5074019;28;8783;-67
2022/01/15 07:36:54;;;;;;;;;99.00;83.50;6.00;66.40;;;;;;5074174;28;8799;-67
2022/01/15 07:39:20;;;;;;;;;125.50;109.25;6.20;66.00;;;;;;5074099;28;8764;-67
2022/01/15 07:41:46;;;;;;;;;104.00;91.50;6.30;65.80;;;;;;5073845;28;8784;-67
2022/01/15 07:44:12;;;;;;;;;97.00;84.75;6.00;66.70;;;;;;5074276;28;8756;-67
2022/01/15 07:46:38;;;;;;;;;87.75;67.50;5.70;67.90;;;;;;5073984;28;8777;-67
2022/01/15 07:49:04;;;;;;;;;89.25;66.75;5.80;68.20;;;;;;5074197;28;8776;-68
2022/01/15 07:51:30;;;;;;;;;76.75;62.00;6.00;67.50;;;;;;5073943;28;8791;-67
2022/01/15 07:53:56;;;;;;;;;65.50;52.75;6.20;66.60;;;;;;5073783;28;8810;-67
2022/01/15 07:56:21;;;;;;;;;66.50;55.25;6.30;65.80;;;;;;5073768;28;8776;-67
2022/01/15 07:58:48;;;;;;;;;68.50;55.50;6.30;65.80;;;;;;5073735;28;8773;-67
2022/01/15 08:01:14;;;;;;;;;64.75;52.50;6.10;66.60;;;;;;5073854;28;8769;-67
2022/01/15 08:03:41;;;;;;;;;66.50;53.50;6.00;66.50;;;;;;5073827;28;8855;-67
2022/01/15 08:06:09;;;;;;;;;64.25;52.25;5.80;68.00;;;;;;5076096;28;8918;-68
2022/01/15 08:08:35;;;;;;;;;64.75;53.00;6.00;67.20;;;;;;5077449;28;8885;-68
2022/01/15 08:11:02;;;;;;;;;65.75;53.00;6.30;66.50;;;;;;5077293;28;8902;-67
2022/01/15 08:13:31;;;;;;;;;67.50;54.00;6.40;65.60;;;;;;5077139;28;8839;-67
2022/01/15 08:15:57;;;;;;;;;68.50;54.25;6.40;65.30;;;;;;5077326;28;8792;-67
2022/01/15 08:18:25;;;;;;;;;74.50;60.50;6.60;65.20;;;;;;5077440;28;8780;-67
2022/01/15 08:20:51;;;;;;;;;69.25;56.00;6.50;66.20;;;;;;5077407;28;8768;-68
2022/01/15 08:23:17;;;;;;;;;76.75;59.00;6.90;64.10;;;;;;5077016;28;8901;-67
2022/01/15 08:25:43;;;;;;;;;77.25;62.50;6.70;64.50;;;;;;5076820;28;8898;-67
2022/01/15 08:28:09;;;;;;;;;80.00;63.50;6.40;65.60;;;;;;5077250;28;8883;-67
2022/01/15 08:30:35;;;;;;;;;69.50;56.25;6.70;65.20;;;;;;5076810;28;8776;-66
2022/01/15 08:33:01;;;;;;;;;74.50;60.00;6.90;64.50;;;;;;5076821;28;8838;-67
2022/01/15 08:35:27;;;;;;;;;73.25;58.50;6.90;64.20;;;;;;5076878;28;8784;-67
2022/01/15 08:37:54;;;;;;;;;66.50;56.00;6.90;64.20;;;;;;5077042;28;8776;-68
2022/01/15 08:40:21;;;;;;;;;68.25;55.00;6.70;65.20;;;;;;5076790;28;8895;-67
2022/01/15 08:42:48;;;;;;;;;65.50;54.00;7.00;64.80;;;;;;5077070;28;8789;-64
2022/01/15 08:45:15;;;;;;;;;64.50;53.00;7.00;64.80;;;;;;5077063;28;8804;-65
2022/01/15 08:47:42;;;;;;;;;61.75;51.25;7.00;64.40;;;;;;5076684;28;8838;-65
2022/01/15 08:50:11;;;;;;;;;59.75;47.75;6.90;64.40;;;;;;5076669;28;8757;-70
2022/01/15 08:52:38;;;;;;;;;59.75;47.25;6.90;64.20;;;;;;5076464;28;8800;-68
2022/01/15 08:55:05;;;;;;;;;61.50;51.50;7.20;64.10;;;;;;5076685;28;8911;-63
2022/01/15 08:57:31;;;;;;;;;66.75;54.75;7.10;63.20;;;;;;5076830;28;8895;-63
2022/01/15 08:59:58;;;;;;;;;71.50;56.25;7.10;64.60;;;;;;5076377;28;8760;-63
2022/01/15 09:02:24;;;;;;;;;62.00;51.25;7.00;64.50;;;;;;5076454;28;8753;-64
2022/01/15 09:04:49;;;;;;;;;64.00;51.75;7.30;63.80;;;;;;5076206;28;8878;-64
2022/01/15 09:07:15;;;;;;;;;59.75;50.25;7.60;62.70;;;;;;5076373;28;8749;-62
2022/01/15 09:09:41;;;;;;;;;54.25;46.50;7.60;62.30;;;;;;5076509;28;8826;-60
2022/01/15 09:12:08;;;;;;;;;55.75;46.50;7.70;62.50;;;;;;5076108;28;8844;-60
2022/01/15 09:14:33;;;;;;;;;49.75;42.25;7.80;61.50;;;;;;5076301;28;8865;-60
2022/01/15 09:16:59;;;;;;;;;57.50;44.50;7.30;62.40;;;;;;5075983;28;8788;-60
2022/01/15 09:19:25;;;;;;;;;59.25;46.50;7.50;63.40;;;;;;5076376;28;8769;-61
2022/01/15 09:21:51;;;;;;;;;59.00;46.50;7.70;62.60;;;;;;5076261;28;8776;-62
2022/01/15 09:24:17;;;;;;;;;61.00;47.50;7.80;62.60;;;;;;5076195;28;9461;-62
2022/01/15 09:27:03;;;;;;;;;63.50;50.75;7.80;62.00;;;;;;5075918;28;8776;-63
2022/01/15 09:32:13;;;;;;;;;61.50;49.75;7.70;61.70;;;;;;5075882;28;8907;-63
2022/01/15 09:34:41;;;;;;;;;71.75;60.00;7.50;63.30;;;;;;5076102;28;8773;-62
2022/01/15 09:37:07;;;;;;;;;63.25;52.50;7.70;63.90;;;;;;5075974;28;8784;-62
2022/01/15 09:39:33;;;;;;;;;66.50;52.00;7.90;62.40;;;;;;5075871;28;8777;-65
2022/01/15 09:41:59;;;;;;;;;62.25;50.25;7.80;62.90;;;;;;5075828;28;8800;-65
2022/01/15 09:44:26;;;;;;;;;58.00;47.75;7.70;62.50;;;;;;5075741;28;8795;-64
2022/01/15 09:46:53;;;;;;;;;59.00;48.75;8.00;63.20;;;;;;5075357;28;8788;-64
2022/01/15 09:49:22;;;;;;;;;46.50;39.50;8.20;61.80;;;;;;5075546;28;8764;-64
2022/01/15 09:51:48;;;;;;;;;58.25;46.75;8.40;61.20;;;;;;5075613;28;9438;-64
2022/01/15 09:54:15;;;;;;;;;59.50;49.75;8.60;59.50;;;;;;5075595;28;8760;-76
2022/01/15 09:56:41;;;;;;;;;50.00;43.50;8.60;60.80;;;;;;5075394;28;8768;-69
2022/01/15 09:59:07;;;;;;;;;57.25;45.75;8.70;59.40;;;;;;5075401;28;8745;-66
2022/01/15 10:01:33;;;;;;;;;57.75;48.00;8.90;59.80;;;;;;5075208;28;9410;-67
2022/01/15 10:04:00;;;;;;;;;56.50;47.00;8.50;59.70;;;;;;5075485;28;8760;-64
2022/01/15 10:06:26;;;;;;;;;62.75;49.75;8.40;61.30;;;;;;5075183;28;8862;-69
2022/01/15 10:09:05;;;;;;;;;53.00;42.75;8.90;59.50;;;;;;5075426;28;8761;-70
2022/01/15 10:11:48;;;;;;;;;52.50;43.75;8.90;59.60;;;;;;5074679;28;8885;-70
2022/01/15 10:14:32;;;;;;;;;46.25;39.00;8.70;59.90;;;;;;5074937;28;8816;-71
2022/01/15 10:17:02;;;;;;;;;50.00;41.00;8.50;60.70;;;;;;5075007;28;8862;-70
2022/01/15 10:19:37;;;;;;;;;53.50;43.75;8.60;60.60;;;;;;5075025;28;8760;-65
2022/01/15 10:22:11;;;;;;;;;39.50;35.00;9.10;60.30;;;;;;5075147;28;9351;-66
2022/01/15 10:24:39;;;;;;;;;50.00;43.25;9.20;59.20;;;;;;5074738;28;8815;-63
2022/01/15 10:27:24;;;;;;;;;49.00;41.00;10.30;56.70;;;;;;5073649;28;8803;-64
2022/01/15 10:29:52;;;;;;;;;47.75;38.75;10.80;54.50;;;;;;5072008;28;8849;-65
2022/01/15 10:32:18;;;;;;;;;51.00;42.00;11.40;53.90;;;;;;5073220;28;8801;-69
2022/01/15 10:34:45;;;;;;;;;49.50;41.50;10.20;54.70;;;;;;5073484;28;8775;-71
2022/01/15 10:37:20;;;;;;;;;49.00;40.00;10.20;55.10;;;;;;5073353;28;8765;-70
2022/01/15 10:40:00;;;;;;;;;42.00;37.00;10.50;56.50;;;;;;5071025;28;8833;-71
2022/01/15 10:42:27;;;;;;;;;42.33;38.00;13.60;50.40;;;;;;5071019;28;8781;-70
2022/01/15 10:44:54;;;;;;;;;40.33;36.33;15.90;42.60;;;;;;5074250;28;8777;-70
2022/01/15 10:47:24;;;;;;;;;38.33;32.00;15.40;42.20;;;;;;5074410;28;8838;-68
2022/01/15 10:49:50;;;;;;;;;41.33;37.33;14.60;41.90;;;;;;5074349;28;8764;-67
2022/01/15 10:52:22;;;;;;;;;44.00;38.00;13.10;46.00;;;;;;5074344;28;8831;-66
2022/01/15 10:55:03;;;;;;;;;42.67;37.33;14.30;44.60;;;;;;5074368;28;8776;-66
2022/01/15 10:57:40;;;;;;;;;40.33;35.67;12.80;46.70;;;;;;5074532;28;8850;-66
2022/01/15 11:00:08;;;;;;;;;41.67;35.33;11.90;50.00;;;;;;5073206;28;8776;-68
2022/01/15 11:02:34;;;;;;;;;44.67;37.67;12.00;49.80;;;;;;5074115;28;8792;-70
2022/01/15 11:05:01;;;;;;;;;43.33;37.00;12.80;48.70;;;;;;5074358;28;9414;-68
2022/01/15 11:07:27;;;;;;;;;48.33;40.33;12.10;48.90;;;;;;5074016;28;8811;-68
2022/01/15 11:09:54;;;;;;;;;53.00;44.33;11.80;53.20;;;;;;5074255;28;8764;-67
2022/01/15 11:12:26;;;;;;;;;49.75;43.00;13.50;47.60;;;;;;5074069;28;9532;-69
2022/01/15 11:14:53;;;;;;;;;44.33;38.00;12.80;47.30;;;;;;5074282;28;8792;-67
2022/01/15 11:17:19;;;;;;;;;46.00;39.75;11.40;49.60;;;;;;5074179;28;8768;-64
2022/01/15 11:19:45;;;;;;;;;41.50;36.00;10.80;52.70;;;;;;5074167;28;8791;-64
2022/01/15 11:22:17;;;;;;;;;44.33;37.67;12.50;51.20;;;;;;5074702;28;8788;-65
2022/01/15 11:24:45;;;;;;;;;40.50;35.50;11.00;51.90;;;;;;5074382;28;8764;-64
2022/01/15 11:27:11;;;;;;;;;39.25;34.00;10.70;53.00;;;;;;5074146;28;8903;-64
2022/01/15 11:29:41;;;;;;;;;40.67;35.33;10.80;53.30;;;;;;5074141;28;8857;-64
2022/01/15 11:32:09;;;;;;;;;36.33;33.00;15.30;46.80;;;;;;5074221;28;9442;-65
2022/01/15 11:34:35;;;;;;;;;32.33;29.67;15.00;42.20;;;;;;5072996;28;8776;-63
2022/01/15 11:37:15;;;;;;;;;30.67;30.33;18.70;39.00;;;;;;5073867;28;8814;-65
2022/01/15 11:39:42;;;;;;;;;27.67;27.00;20.50;35.10;;;;;;5075658;28;8811;-63
2022/01/15 11:42:27;;;;;;;;;28.67;28.67;22.80;31.80;;;;;;5074124;28;11544;-67
2022/01/15 11:44:54;;;;;;;;;23.00;23.00;22.60;30.20;;;;;;5077844;28;8761;-68
2022/01/15 11:47:23;;;;;;;;;24.33;24.33;22.50;29.80;;;;;;5077992;28;12121;-66
2022/01/15 11:49:53;;;;;;;;;28.00;28.00;20.10;30.60;;;;;;5076950;28;11479;-69
2022/01/15 11:52:23;;;;;;;;;27.33;27.33;18.20;35.10;;;;;;5077527;28;11599;-66
2022/01/15 11:54:49;;;;;;;;;33.67;32.00;19.30;36.50;;;;;;5076588;28;8881;-67
2022/01/15 11:57:23;;;;;;;;;28.00;28.00;20.90;31.80;;;;;;5077865;28;8784;-68
2022/01/15 11:59:51;;;;;;;;;28.67;28.67;18.40;34.70;;;;;;5077665;28;8780;-63
2022/01/15 12:02:28;;;;;;;;;25.33;25.33;16.10;40.00;;;;;;5077295;28;8886;-65
2022/01/15 12:04:54;;;;;;;;;43.00;36.33;15.70;39.90;;;;;;5077657;28;11513;-65
2022/01/15 12:07:21;;;;;;;;;32.33;31.33;19.40;37.60;;;;;;5077699;28;8768;-64
2022/01/15 12:09:49;;;;;;;;;29.33;28.67;19.30;34.00;;;;;;5077611;28;9410;-65
2022/01/15 12:12:23;;;;;;;;;27.67;27.67;20.20;33.90;;;;;;5077137;28;9523;-65
2022/01/15 12:15:03;;;;;;;;;30.33;30.33;21.10;32.60;;;;;;5077244;28;11524;-69
2022/01/15 12:17:42;;;;;;;;;34.00;33.00;21.40;31.20;;;;;;5077446;28;8768;-66
2022/01/15 12:20:28;;;;;;;;;23.75;23.75;19.70;32.90;;;;;;5077165;28;8772;-68
2022/01/15 12:23:00;;;;;;;;;25.00;25.00;22.10;30.30;;;;;;5076924;28;11532;-65
2022/01/15 12:25:26;;;;;;;;;26.33;26.33;22.50;28.80;;;;;;5076957;28;11558;-64
2022/01/15 12:28:07;;;;;;;;;26.00;26.00;22.20;30.00;;;;;;5076819;28;11511;-69
2022/01/15 12:30:40;;;;;;;;;27.00;27.00;22.50;29.80;;;;;;5076966;28;8776;-67
2022/01/15 12:33:08;;;;;;;;;21.50;21.50;24.30;28.30;;;;;;5076969;28;11623;-65
2022/01/15 12:35:37;;;;;;;;;25.25;25.25;24.20;27.80;;;;;;5077040;28;11480;-67
2022/01/15 12:38:16;;;;;;;;;21.75;21.75;24.50;27.30;;;;;;5076738;28;11500;-67
2022/01/15 12:40:48;;;;;;;;;25.00;25.00;25.10;26.50;;;;;;5076535;28;11489;-66
2022/01/15 12:43:24;;;;;;;;;23.50;23.50;24.10;27.20;;;;;;5076572;28;11497;-65
2022/01/15 12:45:54;;;;;;;;;23.75;23.75;22.30;28.90;;;;;;5076644;28;11512;-65
2022/01/15 12:48:23;;;;;;;;;24.25;24.25;22.80;28.70;;;;;;5076392;28;11475;-66
2022/01/15 12:50:54;;;;;;;;;27.33;27.33;21.70;29.40;;;;;;5074336;28;11493;-66
2022/01/15 12:53:23;;;;;;;;;24.25;24.25;21.50;29.80;;;;;;5072961;28;12162;-63
2022/01/15 12:55:50;;;;;;;;;25.50;25.50;21.10;30.70;;;;;;5075138;28;11534;-66
2022/01/15 12:58:21;;;;;;;;;24.67;24.67;22.50;29.10;;;;;;5075427;28;11473;-68
2022/01/15 13:00:48;;;;;;;;;31.67;31.00;22.60;29.10;;;;;;5074715;28;11489;-65
2022/01/15 13:03:17;;;;;;;;;23.75;23.75;22.60;29.30;;;;;;5072876;28;11482;-65
2022/01/15 13:05:54;;;;;;;;;25.33;25.33;20.20;31.20;;;;;;5076530;28;11563;-65
2022/01/15 13:08:30;;;;;;;;;26.33;26.33;19.00;33.70;;;;;;5076334;28;11436;-66
2022/01/15 13:11:03;;;;;;;;;23.67;23.67;19.40;33.80;;;;;;5075829;28;11612;-65
2022/01/15 13:13:33;;;;;;;;;24.33;24.33;20.40;32.10;;;;;;5075823;28;11521;-65
2022/01/15 13:16:05;;;;;;;;;30.00;30.00;22.00;29.90;;;;;;5066841;28;11521;-65